Terminal Aerodrome Forecast
Issued by NWS

Home | Current Version | Previous Version | Text Only | Print | Product List | Glossary On
Versions: 1 2 3 4 5 6 7 8 9 10 11 12 13 14 15
000
FTUS45 KABQ 201724
TAFLVS
TAF
KLVS 201724Z 2018/2118 15010KT P6SM SKC
      TEMPO 2018/2020 19010KT
     FM202000 21015G25KT P6SM SKC
     FM210200 19010KT P6SM SKC
     FM211600 23015G25KT P6SM SKC=

USA.gov is the U.S. government's official web portal to all federal, state and local government web resources and services.